Santa Paula, CA

5:31 PM PDT on August 21, 2014 (GMT -0700)
Point Mugu Naval Air Station | Change Station
CLOSE
Current Station
Airport
Location: Point Mugu,
Elevation: 13 ft
Nearby Weather Stations

Elev 13 ft 34.12 °N, 119.12 °W | Updated 35 minutes ago

Partly Cloudy
Partly Cloudy
76 °F
Feels Like 76 °F
N
13
Wind Variable Wind from West

Today
High -- | Low -- °F
--% Chance of Precip.
Yesterday
High -- | Low -- °F
Precip. -- in
6:21 AM 7:36 PM
Waning Crescent, 11% visible
Pressure 29.92 in
Visibility 10.0 miles
Clouds Few 1400 ft
Few 8000 ft
Dew Point 61 °F
Humidity 60%
Rainfall 0.00 in
Snow Depth Not available.
UV 3 out of 12
Pollen 7.50 out of 12
Ozone Good
PM2.5 Good
Flu Activity Not available.
METAR KNTD 212356Z 26011KT 10SM FEW014 FEW080 24/16 A2991 RMK AO2 SLP130 T02440161 10261 20244 56014 $

More Conditions Fewer Conditions

Pressure 29.92 in
Visibility 10.0 miles
Clouds Few 1400 ft
Few 8000 ft
Dew Point 61 °F
Humidity 60%
Rainfall 0.00 in
Snow Depth Not available.
UV 3 out of 12
Pollen 7.50 out of 12
Ozone Good
PM2.5 Good
Flu Activity Not available.
METAR KNTD 212356Z 26011KT 10SM FEW014 FEW080 24/16 A2991 RMK AO2 SLP130 T02440161 10261 20244 56014 $

More Conditions Fewer Conditions

10-Day Weather Forecast

Almanac

Astronomy

Aug. 21, 2014 Rise Set
Actual Time 6:21 AM PDT 7:36 PM PDT
Civil Twilight 5:55 AM PDT 8:02 PM PDT
Nautical Twilight 5:24 AM PDT 8:33 PM PDT
Astronomical Twilight 4:51 AM PDT 9:06 PM PDT
Moon 3:00 AM PDT (8/21) 5:05 PM PDT (8/21)
Length of Visible Light 14h 07m
Length of Day
13h 14m
Tomorrow will be 1m 57s shorter.
Waning Crescent, 11% of the Moon is Illuminated
Today
Waning Crescent
Aug 25
New
Sep 2
First Quarter
Sep 8
Full
Sep 15
Last Quarter

Today's Extremes

State Highs State Lows

Community

WunderPhotos

Upload Photos

1,746,073 photos uploaded!

Nearby

Air Quality

  Air Quality AQ Index Pollutant
Yesterday Good
PM2.5
Yesterday Good
OZONE
Current Good
OZONE
Current Good
PM2.5
Thursday Good
OZONE
Thursday Good
PM2.5
Friday Good
OZONE
Friday Good
PM2.5
Saturday Good
OZONE
Saturday Good
PM2.5
Sunday Moderate
PM2.5
Sunday Good
OZONE
Monday Moderate
PM2.5
Monday Good
OZONE
Tuesday Good
OZONE
Tuesday Good
PM2.5

Snow Depth

Station Depth Elevation
Leavitt Meadows 0 in 7200 ft
Summit Meadow 0 in 9122 ft
Tahoe City Cross 0 in 6750 ft
CSS Lab 3 in 6900 ft
Adin Mountain 0 in 6200 ft

Earthquake Activity

City Distance Mag. Time & Date
King City, California 168 miles 2.7 10:26 PM PDT
2014-08-15
Malibu Beach, California 34 miles 3.4 10:03 AM PDT
2014-08-15
Kettleman City, California 128 miles 2.9 11:32 PM PDT
2014-08-14
King City, California 168 miles 2.9 8:01 PM PDT
2014-08-14
Minimum magnitude displayed is 2.5.

Coastal Water Temperatures

Place Temperature
Santa Monica Pier 72.0 °F
Los Angeles, CA 68.0 °F
Port San Luis, CA 60.1 °F

Nearby Weather Stations